createdAt,value
2018-03-28T00:00:40.605Z,33.67
2018-03-28T00:03:08.744Z,32.50
2018-03-28T00:05:36.860Z,31.50
2018-03-28T00:08:05.774Z,34.37
2018-03-28T00:10:33.894Z,32.60
2018-03-28T00:13:02.020Z,33.37
2018-03-28T00:15:30.124Z,34.53
2018-03-28T00:17:58.248Z,33.20
2018-03-28T00:20:27.119Z,35.53
2018-03-28T00:22:56.349Z,33.67
2018-03-28T00:25:24.495Z,33.70
2018-03-28T00:27:52.619Z,33.80
2018-03-28T00:30:20.728Z,35.00
2018-03-28T00:32:48.859Z,35.03
2018-03-28T00:35:16.969Z,36.00
2018-03-28T00:37:45.108Z,33.80
2018-03-28T00:40:13.268Z,33.63
2018-03-28T00:42:41.400Z,35.60
2018-03-28T00:45:09.507Z,32.70
2018-03-28T00:47:38.394Z,35.33
2018-03-28T00:50:06.502Z,35.67
2018-03-28T00:52:34.632Z,32.53
2018-03-28T00:55:03.499Z,32.57
2018-03-28T00:57:31.628Z,33.50
2018-03-28T01:00:01.041Z,34.27
2018-03-28T01:02:29.171Z,37.10
2018-03-28T01:04:58.422Z,36.20
2018-03-28T01:07:26.555Z,36.40
2018-03-28T01:09:54.666Z,34.63
2018-03-28T01:12:22.809Z,34.30
2018-03-28T01:14:50.907Z,32.53
2018-03-28T01:17:19.047Z,34.83
2018-03-28T01:19:47.155Z,32.73
2018-03-28T01:22:15.279Z,33.50
2018-03-28T01:24:44.155Z,32.90
2018-03-28T01:27:12.298Z,33.60
2018-03-28T01:29:40.390Z,31.87
2018-03-28T01:32:08.515Z,34.13
2018-03-28T01:34:36.618Z,33.73
2018-03-28T01:37:04.746Z,34.80
2018-03-28T01:39:32.868Z,33.80
2018-03-28T01:42:00.999Z,34.50
2018-03-28T01:44:29.099Z,33.03
2018-03-28T01:46:57.235Z,33.70
2018-03-28T01:49:26.106Z,34.80
2018-03-28T01:51:54.259Z,33.20
2018-03-28T01:54:22.369Z,32.60
2018-03-28T01:56:51.265Z,33.53
2018-03-28T01:59:19.370Z,32.23
2018-03-28T02:01:47.515Z,34.40
2018-03-28T02:04:15.626Z,32.60
2018-03-28T02:06:43.727Z,31.33
2018-03-28T02:09:11.869Z,33.87
2018-03-28T02:11:39.976Z,31.37
2018-03-28T02:14:08.103Z,32.80
2018-03-28T02:16:36.218Z,30.57
2018-03-28T02:19:04.352Z,32.60
2018-03-28T02:21:32.454Z,33.77
2018-03-28T02:24:00.600Z,34.27
2018-03-28T02:26:28.702Z,31.70
2018-03-28T02:28:56.846Z,32.37
2018-03-28T02:31:24.965Z,33.90
2018-03-28T02:33:53.109Z,30.90
2018-03-28T02:36:21.210Z,32.20
2018-03-28T02:38:49.373Z,32.10
2018-03-28T02:41:17.500Z,31.97
2018-03-28T02:43:45.652Z,32.47
2018-03-28T02:46:13.765Z,33.13
2018-03-28T02:48:41.896Z,30.63
2018-03-28T02:51:10.004Z,30.30
2018-03-28T02:53:38.144Z,32.60
2018-03-28T02:56:07.019Z,31.17
2018-03-28T02:58:35.913Z,30.93
2018-03-28T03:01:04.794Z,33.17
2018-03-28T03:03:32.925Z,33.13
2018-03-28T03:06:01.037Z,32.20
2018-03-28T03:08:29.166Z,31.63
2018-03-28T03:10:57.293Z,32.40
2018-03-28T03:13:26.206Z,33.20
2018-03-28T03:15:54.306Z,31.97
2018-03-28T03:18:22.445Z,31.23
2018-03-28T03:20:50.554Z,34.87
2018-03-28T03:23:18.691Z,31.43
2018-03-28T03:25:46.806Z,32.07
2018-03-28T03:28:14.937Z,33.73
2018-03-28T03:30:43.061Z,32.60
2018-03-28T03:33:11.193Z,34.67
2018-03-28T03:35:39.314Z,33.30
2018-03-28T03:38:07.455Z,32.40
2018-03-28T03:40:35.660Z,33.50
2018-03-28T03:43:03.796Z,32.80
2018-03-28T03:45:31.912Z,34.03
2018-03-28T03:48:00.046Z,33.83
2018-03-28T03:50:28.148Z,32.70
2018-03-28T03:52:56.282Z,30.33
2018-03-28T03:55:24.408Z,32.80
2018-03-28T03:57:52.546Z,34.10
2018-03-28T04:00:21.586Z,32.83
2018-03-28T04:02:49.723Z,37.85
2018-03-28T04:05:17.844Z,39.27
2018-03-28T04:07:46.746Z,33.40
2018-03-28T04:10:14.865Z,35.20
2018-03-28T04:12:42.995Z,34.57
2018-03-28T04:15:11.098Z,35.97
2018-03-28T04:17:39.229Z,33.33
2018-03-28T04:20:08.104Z,34.13
2018-03-28T04:22:36.246Z,35.40
2018-03-28T04:25:04.357Z,36.73
2018-03-28T04:27:33.042Z,32.60
2018-03-28T04:30:01.158Z,34.70
2018-03-28T04:32:29.392Z,36.90
2018-03-28T04:34:58.752Z,32.77
2018-03-28T04:37:26.854Z,32.67
2018-03-28T04:39:55.771Z,34.10
2018-03-28T04:42:24.655Z,33.30
2018-03-28T04:44:53.558Z,33.70
2018-03-28T04:47:22.423Z,34.60
2018-03-28T04:49:50.559Z,32.03
2018-03-28T04:52:18.681Z,34.03
2018-03-28T04:54:46.813Z,34.10
2018-03-28T04:57:14.926Z,34.20
2018-03-28T04:59:43.056Z,33.47
2018-03-28T05:02:11.164Z,31.03
2018-03-28T05:04:39.318Z,33.10
2018-03-28T05:07:07.428Z,33.97
2018-03-28T05:09:36.704Z,33.00
2018-03-28T05:12:04.824Z,33.87
2018-03-28T05:14:32.946Z,31.40
2018-03-28T05:17:01.076Z,31.27
2018-03-28T05:19:29.212Z,30.90
2018-03-28T05:21:57.317Z,31.40
2018-03-28T05:24:25.542Z,30.23
2018-03-28T05:26:53.693Z,31.03
2018-03-28T05:29:21.827Z,30.33
2018-03-28T05:31:50.752Z,32.60
2018-03-28T05:34:18.856Z,32.27
2018-03-28T05:36:46.976Z,32.20
2018-03-28T05:39:15.102Z,33.80
2018-03-28T05:41:43.235Z,31.67
2018-03-28T05:44:11.345Z,35.17
2018-03-28T05:46:39.451Z,33.00
2018-03-28T05:49:08.342Z,34.63
2018-03-28T05:51:37.205Z,35.40
2018-03-28T05:54:05.349Z,33.43
2018-03-28T05:56:33.446Z,35.17
2018-03-28T05:59:01.581Z,34.00
2018-03-28T06:01:29.686Z,33.83
2018-03-28T06:03:57.814Z,32.70
2018-03-28T06:06:25.924Z,32.83
2018-03-28T06:08:54.057Z,33.07
2018-03-28T06:11:22.180Z,32.83
2018-03-28T06:13:50.313Z,33.23
2018-03-28T06:16:18.430Z,32.07
2018-03-28T06:18:47.552Z,33.50
2018-03-28T06:21:16.427Z,31.70
2018-03-28T06:23:44.560Z,32.70
2018-03-28T06:26:12.686Z,30.80
2018-03-28T06:28:40.811Z,31.27
2018-03-28T06:31:08.920Z,29.57
2018-03-28T06:33:37.130Z,29.33
2018-03-28T06:36:05.273Z,30.30
2018-03-28T06:38:33.404Z,27.47
2018-03-28T06:41:01.520Z,27.83
2018-03-28T06:43:29.758Z,27.67
2018-03-28T06:45:57.887Z,26.47
2018-03-28T06:48:26.001Z,25.40
2018-03-28T06:50:54.179Z,25.90
2018-03-28T06:53:22.284Z,24.50
2018-03-28T06:55:50.411Z,27.13
2018-03-28T06:58:18.710Z,30.50
2018-03-28T07:00:47.987Z,27.50
2018-03-28T07:03:16.106Z,26.17
2018-03-28T07:05:44.263Z,27.07
2018-03-28T07:08:12.459Z,25.00
2018-03-28T07:10:40.586Z,24.73
2018-03-28T07:13:08.876Z,26.47
2018-03-28T07:15:37.835Z,24.60
2018-03-28T07:18:06.085Z,26.67
2018-03-28T07:20:34.300Z,24.67
2018-03-28T07:23:03.180Z,22.77
2018-03-28T07:25:31.636Z,22.83
2018-03-28T07:28:00.600Z,24.90
2018-03-28T07:30:28.728Z,22.10
2018-03-28T07:32:56.853Z,23.10
2018-03-28T07:35:24.971Z,20.40
2018-03-28T07:37:53.076Z,20.70
2018-03-28T07:40:21.209Z,21.10
2018-03-28T07:42:49.504Z,21.43
2018-03-28T07:45:18.476Z,20.93
2018-03-28T07:47:46.607Z,19.60
2018-03-28T07:50:14.752Z,19.73
2018-03-28T07:52:42.861Z,19.33
2018-03-28T07:55:11.008Z,18.03
2018-03-28T07:57:39.107Z,18.20
2018-03-28T08:00:07.250Z,19.40
2018-03-28T08:02:35.356Z,18.73
2018-03-28T08:05:03.484Z,18.70
2018-03-28T08:07:31.608Z,17.40
2018-03-28T08:09:59.738Z,17.47
2018-03-28T08:12:27.857Z,14.40
2018-03-28T08:14:56.758Z,17.80
2018-03-28T08:17:25.624Z,18.67
2018-03-28T08:19:53.751Z,14.97
2018-03-28T08:22:21.886Z,14.90
2018-03-28T08:24:50.786Z,16.17
2018-03-28T08:27:19.671Z,16.73
2018-03-28T08:29:48.577Z,17.43
2018-03-28T08:32:16.690Z,16.77
2018-03-28T08:34:44.824Z,15.40
2018-03-28T08:37:12.934Z,15.03
2018-03-28T08:39:41.071Z,14.70
2018-03-28T08:42:09.175Z,14.93
2018-03-28T08:44:37.328Z,14.90
2018-03-28T08:47:05.450Z,15.50
2018-03-28T08:49:33.621Z,15.93
2018-03-28T08:52:01.740Z,16.87
2018-03-28T08:54:29.875Z,15.27
2018-03-28T08:56:57.978Z,16.83
2018-03-28T08:59:26.112Z,16.37
2018-03-28T09:01:54.227Z,17.17
2018-03-28T09:04:22.322Z,16.10
2018-03-28T09:06:50.454Z,15.67
2018-03-28T09:09:19.371Z,15.63
2018-03-28T09:11:47.515Z,16.13
2018-03-28T09:14:16.379Z,15.07
2018-03-28T09:16:44.519Z,17.60
2018-03-28T09:19:12.635Z,15.37
2018-03-28T09:21:40.779Z,15.77
2018-03-28T09:24:08.882Z,16.40
2018-03-28T09:26:37.032Z,16.63
2018-03-28T09:29:05.186Z,15.33
2018-03-28T09:31:33.344Z,17.20
2018-03-28T09:34:01.460Z,17.00
2018-03-28T09:36:29.645Z,16.87
2018-03-28T09:38:57.830Z,17.73
2018-03-28T09:41:26.028Z,17.50
2018-03-28T09:43:54.218Z,18.87
2018-03-28T09:46:22.417Z,17.00
2018-03-28T09:48:50.599Z,16.93
2018-03-28T09:51:18.802Z,16.97
2018-03-28T09:53:46.972Z,18.50
2018-03-28T09:56:15.166Z,17.53
2018-03-28T09:58:44.093Z,18.40
2018-03-28T10:01:12.304Z,18.30
2018-03-28T10:03:46.044Z,17.87
2018-03-28T10:06:15.007Z,18.97
2018-03-28T10:08:43.862Z,17.53
2018-03-28T10:11:13.502Z,17.03
2018-03-28T10:13:41.673Z,16.80
2018-03-28T10:16:09.894Z,16.63
2018-03-28T10:18:38.826Z,19.60
2018-03-28T10:21:07.013Z,17.40
2018-03-28T10:23:35.174Z,16.27
2018-03-28T10:26:03.516Z,17.43
2018-03-28T10:28:31.725Z,17.47
2018-03-28T10:30:59.931Z,17.80
2018-03-28T10:33:28.099Z,17.83
2018-03-28T10:35:56.300Z,16.87
2018-03-28T10:38:25.263Z,17.50
2018-03-28T10:40:53.454Z,16.50
2018-03-28T10:43:21.630Z,16.77
2018-03-28T10:45:50.620Z,16.80
2018-03-28T10:48:18.814Z,16.80
2018-03-28T10:50:47.773Z,17.43
2018-03-28T10:53:26.079Z,18.53
2018-03-28T10:55:54.260Z,17.97
2018-03-28T10:58:22.516Z,19.13
2018-03-28T11:00:50.763Z,17.70
2018-03-28T11:03:18.940Z,18.10
2018-03-28T11:05:47.182Z,16.80
2018-03-28T11:08:15.327Z,17.70
2018-03-28T11:10:43.472Z,17.90
2018-03-28T11:13:11.680Z,18.30
2018-03-28T11:15:39.871Z,16.87
2018-03-28T11:18:08.790Z,15.57
2018-03-28T11:20:37.203Z,16.40
2018-03-28T11:23:05.546Z,15.10
2018-03-28T11:25:34.158Z,18.30
2018-03-28T11:28:02.530Z,18.40
2018-03-28T11:30:30.852Z,15.90
2018-03-28T11:32:59.755Z,15.20
2018-03-28T11:35:28.652Z,15.07
2018-03-28T11:37:57.682Z,15.10
2018-03-28T11:40:26.541Z,15.60
2018-03-28T11:42:55.422Z,14.90
2018-03-28T11:45:24.316Z,14.23
2018-03-28T11:47:53.370Z,14.27
2018-03-28T11:50:21.499Z,13.20
2018-03-28T11:52:49.658Z,14.20
2018-03-28T11:55:18.534Z,12.10
2018-03-28T11:57:46.678Z,12.97
2018-03-28T12:00:14.883Z,11.57
2018-03-28T12:02:43.035Z,11.87
2018-03-28T12:05:11.149Z,12.90
2018-03-28T12:07:40.404Z,11.70
2018-03-28T12:10:08.514Z,11.27
2018-03-28T12:12:37.415Z,13.03
2018-03-28T12:15:06.292Z,11.93
2018-03-28T12:17:35.189Z,12.00
2018-03-28T12:20:03.365Z,10.43
2018-03-28T12:22:32.272Z,12.07
2018-03-28T12:25:07.305Z,11.10
2018-03-28T12:27:36.204Z,11.37
2018-03-28T12:30:04.324Z,11.50
2018-03-28T12:32:32.588Z,12.70
2018-03-28T12:35:00.703Z,11.27
2018-03-28T12:37:29.599Z,11.20
2018-03-28T12:39:58.490Z,13.00
2018-03-28T12:42:27.396Z,11.97
2018-03-28T12:44:55.509Z,12.67
2018-03-28T12:47:23.653Z,13.37
2018-03-28T12:49:51.830Z,12.50
2018-03-28T12:52:20.009Z,11.10
2018-03-28T12:54:48.062Z,11.50
2018-03-28T12:57:16.951Z,11.30
2018-03-28T12:59:45.851Z,10.70
2018-03-28T13:02:14.826Z,11.30
2018-03-28T13:04:42.899Z,12.43
2018-03-28T13:07:11.073Z,12.40
2018-03-28T13:09:39.266Z,12.60
2018-03-28T13:12:08.504Z,12.87
2018-03-28T13:14:36.722Z,11.20
2018-03-28T13:17:05.067Z,12.30
2018-03-28T13:19:33.227Z,12.33
2018-03-28T13:22:01.382Z,11.63
2018-03-28T13:24:29.516Z,11.43
2018-03-28T13:26:57.724Z,13.07
2018-03-28T13:29:26.804Z,11.27
2018-03-28T13:31:54.972Z,13.13
2018-03-28T13:34:23.951Z,12.07
2018-03-28T13:36:52.089Z,12.77
2018-03-28T13:39:20.387Z,11.57
2018-03-28T13:41:48.521Z,13.10
2018-03-28T13:44:16.649Z,12.07
2018-03-28T13:46:45.730Z,11.77
2018-03-28T13:49:18.122Z,10.93
2018-03-28T13:51:48.734Z,12.20
2018-03-28T13:54:25.172Z,11.47
2018-03-28T13:57:07.189Z,13.20
2018-03-28T13:59:37.863Z,14.90
2018-03-28T14:02:07.152Z,12.10
2018-03-28T14:04:35.347Z,11.50
2018-03-28T14:07:04.251Z,12.90
2018-03-28T14:09:32.376Z,12.63
2018-03-28T14:12:00.540Z,12.43
2018-03-28T14:14:28.649Z,12.63
2018-03-28T14:16:57.569Z,12.30
2018-03-28T14:19:25.684Z,12.20
2018-03-28T14:21:53.844Z,12.80
2018-03-28T14:24:21.952Z,12.33
2018-03-28T14:26:50.102Z,13.40
2018-03-28T14:29:18.206Z,12.90
2018-03-28T14:31:46.372Z,12.67
2018-03-28T14:34:14.483Z,12.83
2018-03-28T14:36:43.390Z,12.40
2018-03-28T14:39:11.516Z,14.33
2018-03-28T14:41:39.651Z,16.07
2018-03-28T14:44:07.768Z,14.10
2018-03-28T14:46:36.686Z,14.07
2018-03-28T14:49:04.800Z,13.03
2018-03-28T14:51:32.937Z,13.30
2018-03-28T14:54:01.065Z,13.80
2018-03-28T14:56:29.263Z,16.40
2018-03-28T14:58:58.154Z,16.70
2018-03-28T15:01:27.049Z,17.90
2018-03-28T15:03:55.945Z,16.47
2018-03-28T15:06:24.057Z,16.13
2018-03-28T15:08:53.391Z,17.00
2018-03-28T15:11:21.509Z,16.40
2018-03-28T15:13:49.634Z,15.90
2018-03-28T15:16:17.744Z,17.87
2018-03-28T15:18:45.876Z,16.30
2018-03-28T15:21:13.989Z,17.03
2018-03-28T15:23:42.901Z,15.47
2018-03-28T15:26:11.003Z,16.50
2018-03-28T15:28:39.143Z,17.60
2018-03-28T15:31:07.260Z,16.83
2018-03-28T15:33:37.215Z,16.53
2018-03-28T15:36:06.079Z,17.37
2018-03-28T15:38:34.213Z,17.27
2018-03-28T15:41:02.650Z,18.90
2018-03-28T15:43:31.551Z,18.23
2018-03-28T15:46:00.423Z,17.73
2018-03-28T15:48:28.551Z,18.70
2018-03-28T15:50:56.661Z,18.87
2018-03-28T15:53:24.796Z,20.23
2018-03-28T15:55:52.904Z,22.07
2018-03-28T15:58:21.037Z,19.17
2018-03-28T16:00:49.148Z,20.10
2018-03-28T16:03:17.274Z,20.60
2018-03-28T16:05:45.381Z,20.13
2018-03-28T16:08:13.527Z,20.67
2018-03-28T16:10:41.637Z,21.10
2018-03-28T16:13:11.110Z,21.10
2018-03-28T16:15:39.133Z,21.43
2018-03-28T16:18:07.263Z,19.97
2018-03-28T16:20:35.383Z,22.07
2018-03-28T16:23:04.469Z,20.47
2018-03-28T16:25:32.584Z,23.23
2018-03-28T16:28:00.714Z,22.97
2018-03-28T16:30:28.824Z,22.60
2018-03-28T16:32:56.983Z,21.67
2018-03-28T16:35:25.248Z,21.47
2018-03-28T16:37:53.381Z,24.27
2018-03-28T16:40:21.494Z,23.03
2018-03-28T16:42:50.387Z,22.73
2018-03-28T16:45:19.276Z,22.20
2018-03-28T16:47:48.176Z,23.83
2018-03-28T16:50:17.046Z,24.90
2018-03-28T16:52:45.181Z,23.00
2018-03-28T16:55:13.975Z,18.77
2018-03-28T16:57:42.092Z,17.67
2018-03-28T17:00:10.989Z,16.60
2018-03-28T17:02:39.872Z,18.73
2018-03-28T17:05:08.742Z,18.63
2018-03-28T17:07:36.890Z,17.20
2018-03-28T17:10:05.013Z,19.83
2018-03-28T17:12:33.916Z,16.83
2018-03-28T17:15:02.030Z,16.10
2018-03-28T17:17:30.177Z,16.00
2018-03-28T17:19:58.282Z,16.10
2018-03-28T17:22:26.414Z,16.60
2018-03-28T17:24:54.518Z,18.90
2018-03-28T17:27:22.658Z,19.70
2018-03-28T17:29:50.768Z,22.27
2018-03-28T17:32:18.904Z,20.67
2018-03-28T17:34:47.007Z,24.97
2018-03-28T17:37:15.144Z,25.17
2018-03-28T17:39:44.560Z,26.27
2018-03-28T17:42:12.673Z,19.13
2018-03-28T17:44:42.428Z,22.37
2018-03-28T17:47:11.313Z,18.70
2018-03-28T17:49:40.225Z,15.13
2018-03-28T17:52:08.335Z,17.73
2018-03-28T17:54:36.462Z,16.60
2018-03-28T17:57:04.576Z,16.40
2018-03-28T17:59:32.732Z,14.70
2018-03-28T18:02:00.840Z,16.03
2018-03-28T18:04:28.973Z,17.10
2018-03-28T18:06:57.090Z,15.50
2018-03-28T18:09:25.218Z,13.93
2018-03-28T18:11:53.322Z,16.10
2018-03-28T18:14:22.653Z,16.47
2018-03-28T18:16:50.759Z,16.47
2018-03-28T18:19:18.906Z,15.43
2018-03-28T18:21:47.016Z,15.50
2018-03-28T18:24:15.159Z,14.27
2018-03-28T18:26:43.260Z,15.83
2018-03-28T18:29:11.387Z,14.90
2018-03-28T18:31:39.500Z,15.43
2018-03-28T18:34:07.679Z,16.07
2018-03-28T18:36:35.800Z,14.70
2018-03-28T18:39:03.937Z,16.57
2018-03-28T18:41:32.035Z,15.37
2018-03-28T18:44:00.165Z,15.20
2018-03-28T18:46:28.288Z,16.73
2018-03-28T18:48:56.419Z,15.00
2018-03-28T18:51:24.523Z,16.67
2018-03-28T18:53:52.675Z,14.93
2018-03-28T18:56:20.789Z,15.30
2018-03-28T18:58:48.889Z,15.33
2018-03-28T19:01:17.783Z,15.20
2018-03-28T19:03:46.659Z,14.30
2018-03-28T19:06:14.801Z,15.33
2018-03-28T19:08:42.913Z,15.07
2018-03-28T19:11:11.803Z,13.70
2018-03-28T19:13:40.746Z,14.57
2018-03-28T19:16:09.607Z,14.57
2018-03-28T19:18:37.724Z,14.93
2018-03-28T19:21:05.853Z,14.80
2018-03-28T19:23:33.960Z,15.90
2018-03-28T19:26:02.095Z,16.23
2018-03-28T19:28:30.959Z,15.30
2018-03-28T19:30:59.103Z,15.03
2018-03-28T19:33:27.210Z,14.00
2018-03-28T19:35:55.331Z,15.90
2018-03-28T19:38:23.443Z,17.03
2018-03-28T19:40:51.569Z,15.97
2018-03-28T19:43:19.691Z,16.07
2018-03-28T19:45:47.825Z,16.27
2018-03-28T19:48:15.944Z,16.33
2018-03-28T19:50:44.067Z,15.97
2018-03-28T19:53:12.197Z,16.13
2018-03-28T19:55:41.085Z,16.03
2018-03-28T19:58:09.236Z,16.77
2018-03-28T20:00:37.359Z,17.60
2018-03-28T20:03:05.466Z,16.83
2018-03-28T20:05:33.595Z,18.80
2018-03-28T20:08:01.708Z,17.20
2018-03-28T20:10:29.834Z,18.60
2018-03-28T20:12:58.698Z,17.07
2018-03-28T20:15:26.840Z,17.10
2018-03-28T20:17:54.930Z,15.77
2018-03-28T20:20:23.070Z,15.93
2018-03-28T20:22:51.186Z,17.87
2018-03-28T20:25:19.306Z,16.03
2018-03-28T20:27:47.426Z,17.03
2018-03-28T20:30:15.539Z,16.67
2018-03-28T20:32:44.454Z,17.10
2018-03-28T20:35:12.568Z,18.17
2018-03-28T20:37:40.724Z,17.00
2018-03-28T20:40:08.924Z,17.90
2018-03-28T20:42:37.100Z,18.13
2018-03-28T20:45:05.207Z,16.90
2018-03-28T20:47:33.348Z,17.53
2018-03-28T20:50:01.504Z,17.00
2018-03-28T20:52:29.676Z,16.50
2018-03-28T20:54:57.843Z,16.70
2018-03-28T20:57:25.974Z,17.13
2018-03-28T20:59:54.090Z,16.33
2018-03-28T21:02:22.534Z,17.83
2018-03-28T21:04:51.068Z,19.00
2018-03-28T21:07:19.678Z,17.70
2018-03-28T21:09:48.556Z,17.00
2018-03-28T21:12:16.674Z,18.67
2018-03-28T21:14:44.797Z,17.53
2018-03-28T21:17:12.950Z,17.23
2018-03-28T21:19:41.062Z,17.23
2018-03-28T21:22:09.982Z,17.30
2018-03-28T21:24:38.086Z,17.97
2018-03-28T21:27:06.302Z,18.03
2018-03-28T21:29:35.171Z,17.40
2018-03-28T21:32:03.411Z,18.63
2018-03-28T21:34:31.517Z,18.50
2018-03-28T21:36:59.669Z,18.80
2018-03-28T21:39:27.780Z,21.20
2018-03-28T21:41:56.673Z,18.80
2018-03-28T21:44:24.822Z,19.17
2018-03-28T21:46:53.008Z,17.57
2018-03-28T21:49:21.121Z,18.83
2018-03-28T21:51:49.237Z,18.60
2018-03-28T21:54:17.383Z,20.50
2018-03-28T21:56:45.482Z,17.80
2018-03-28T21:59:13.616Z,19.80
2018-03-28T22:01:41.720Z,20.03
2018-03-28T22:04:09.853Z,20.20
2018-03-28T22:06:37.954Z,15.83
2018-03-28T22:09:06.095Z,14.97
2018-03-28T22:11:34.210Z,15.40
2018-03-28T22:14:03.140Z,15.00
2018-03-28T22:16:32.023Z,14.63
2018-03-28T22:19:00.150Z,17.13
2018-03-28T22:21:28.265Z,17.60
2018-03-28T22:23:56.400Z,13.70
2018-03-28T22:26:24.517Z,14.90
2018-03-28T22:28:52.659Z,17.67
2018-03-28T22:31:20.791Z,14.23
2018-03-28T22:33:49.688Z,14.33
2018-03-28T22:36:18.551Z,11.80
2018-03-28T22:38:46.692Z,10.93
2018-03-28T22:41:14.804Z,10.50
2018-03-28T22:43:42.940Z,10.93
2018-03-28T22:46:11.047Z,10.53
2018-03-28T22:48:39.179Z,11.20
2018-03-28T22:51:07.299Z,12.17
2018-03-28T22:53:35.444Z,13.40
2018-03-28T22:56:03.561Z,12.90
2018-03-28T22:58:32.454Z,14.17
2018-03-28T23:01:00.567Z,12.47
2018-03-28T23:03:28.707Z,12.30
2018-03-28T23:05:56.816Z,13.13
2018-03-28T23:08:24.952Z,12.80
2018-03-28T23:10:53.059Z,12.00
2018-03-28T23:13:21.196Z,11.43
2018-03-28T23:15:49.337Z,11.77
2018-03-28T23:18:17.431Z,11.00
2018-03-28T23:20:46.330Z,10.50
2018-03-28T23:23:15.197Z,9.70
2018-03-28T23:25:43.311Z,7.37
2018-03-28T23:28:11.421Z,8.70
2018-03-28T23:30:39.549Z,8.13
2018-03-28T23:33:08.491Z,9.40
2018-03-28T23:35:36.650Z,10.50
2018-03-28T23:38:04.759Z,10.50
2018-03-28T23:40:33.660Z,10.00
2018-03-28T23:43:02.558Z,10.40
2018-03-28T23:45:31.452Z,11.47
2018-03-28T23:47:59.565Z,11.60
2018-03-28T23:50:27.705Z,11.70
2018-03-28T23:52:55.811Z,12.00
2018-03-28T23:55:23.944Z,13.00
2018-03-28T23:57:52.068Z,13.57
